sensor_id;sensor_type;location;lat;lon;timestamp;P1;durP1;ratioP1;P2;durP2;ratioP2
3901;SDS011;1966;49.908;9.156;2023-07-08T00:01:38;16.20;;;9.37;;
3901;SDS011;1966;49.908;9.156;2023-07-08T00:06:38;16.50;;;11.00;;
3901;SDS011;1966;49.908;9.156;2023-07-08T00:11:37;9.20;;;7.40;;
3901;SDS011;1966;49.908;9.156;2023-07-08T00:16:37;9.40;;;7.20;;
3901;SDS011;1966;49.908;9.156;2023-07-08T00:21:37;7.97;;;5.67;;
3901;SDS011;1966;49.908;9.156;2023-07-08T00:26:36;8.93;;;6.80;;
3901;SDS011;1966;49.908;9.156;2023-07-08T00:31:35;11.73;;;7.10;;
3901;SDS011;1966;49.908;9.156;2023-07-08T00:36:36;14.00;;;8.77;;
3901;SDS011;1966;49.908;9.156;2023-07-08T00:41:36;17.53;;;10.20;;
3901;SDS011;1966;49.908;9.156;2023-07-08T00:46:46;18.37;;;11.03;;
3901;SDS011;1966;49.908;9.156;2023-07-08T00:51:49;16.50;;;10.77;;
3901;SDS011;1966;49.908;9.156;2023-07-08T00:56:49;14.07;;;10.37;;
3901;SDS011;1966;49.908;9.156;2023-07-08T01:01:51;16.20;;;10.47;;
3901;SDS011;1966;49.908;9.156;2023-07-08T01:06:53;13.97;;;8.97;;
3901;SDS011;1966;49.908;9.156;2023-07-08T01:11:55;15.47;;;9.20;;
3901;SDS011;1966;49.908;9.156;2023-07-08T01:16:55;15.17;;;9.70;;
3901;SDS011;1966;49.908;9.156;2023-07-08T01:21:59;12.57;;;9.17;;
3901;SDS011;1966;49.908;9.156;2023-07-08T01:26:58;13.47;;;8.70;;
3901;SDS011;1966;49.908;9.156;2023-07-08T01:31:58;13.70;;;9.83;;
3901;SDS011;1966;49.908;9.156;2023-07-08T01:37:02;15.33;;;10.83;;
3901;SDS011;1966;49.908;9.156;2023-07-08T01:42:03;13.60;;;9.13;;
3901;SDS011;1966;49.908;9.156;2023-07-08T01:47:03;13.10;;;9.73;;
3901;SDS011;1966;49.908;9.156;2023-07-08T01:52:05;12.80;;;8.23;;
3901;SDS011;1966;49.908;9.156;2023-07-08T01:57:05;12.40;;;8.80;;
3901;SDS011;1966;49.908;9.156;2023-07-08T02:02:04;11.50;;;8.43;;
3901;SDS011;1966;49.908;9.156;2023-07-08T02:07:05;12.00;;;8.57;;
3901;SDS011;1966;49.908;9.156;2023-07-08T02:12:04;10.30;;;7.37;;
3901;SDS011;1966;49.908;9.156;2023-07-08T02:17:04;13.70;;;9.23;;
3901;SDS011;1966;49.908;9.156;2023-07-08T02:22:05;11.47;;;8.87;;
3901;SDS011;1966;49.908;9.156;2023-07-08T02:27:04;13.43;;;8.63;;
3901;SDS011;1966;49.908;9.156;2023-07-08T02:32:04;13.00;;;8.90;;
3901;SDS011;1966;49.908;9.156;2023-07-08T02:37:04;13.60;;;9.50;;
3901;SDS011;1966;49.908;9.156;2023-07-08T02:42:04;12.23;;;7.73;;
3901;SDS011;1966;49.908;9.156;2023-07-08T02:47:04;16.27;;;9.63;;
3901;SDS011;1966;49.908;9.156;2023-07-08T02:52:03;17.37;;;11.10;;
3901;SDS011;1966;49.908;9.156;2023-07-08T02:57:04;16.23;;;9.83;;
3901;SDS011;1966;49.908;9.156;2023-07-08T03:02:03;12.60;;;9.30;;
3901;SDS011;1966;49.908;9.156;2023-07-08T03:07:03;14.20;;;9.17;;
3901;SDS011;1966;49.908;9.156;2023-07-08T03:12:02;13.40;;;9.43;;
3901;SDS011;1966;49.908;9.156;2023-07-08T03:17:03;13.00;;;9.73;;
3901;SDS011;1966;49.908;9.156;2023-07-08T03:22:03;13.50;;;9.63;;
3901;SDS011;1966;49.908;9.156;2023-07-08T03:27:03;15.07;;;10.60;;
3901;SDS011;1966;49.908;9.156;2023-07-08T03:32:07;13.17;;;9.27;;
3901;SDS011;1966;49.908;9.156;2023-07-08T03:37:08;13.00;;;9.30;;
3901;SDS011;1966;49.908;9.156;2023-07-08T03:42:07;9.70;;;7.27;;
3901;SDS011;1966;49.908;9.156;2023-07-08T03:47:08;9.33;;;7.00;;
3901;SDS011;1966;49.908;9.156;2023-07-08T03:52:07;9.33;;;7.17;;
3901;SDS011;1966;49.908;9.156;2023-07-08T03:57:10;12.17;;;8.97;;
3901;SDS011;1966;49.908;9.156;2023-07-08T04:02:11;15.53;;;9.50;;
3901;SDS011;1966;49.908;9.156;2023-07-08T04:07:10;11.57;;;9.27;;
3901;SDS011;1966;49.908;9.156;2023-07-08T04:12:10;13.77;;;9.80;;
3901;SDS011;1966;49.908;9.156;2023-07-08T04:17:11;16.43;;;9.97;;
3901;SDS011;1966;49.908;9.156;2023-07-08T04:22:10;13.47;;;10.33;;
3901;SDS011;1966;49.908;9.156;2023-07-08T04:27:11;14.07;;;9.23;;
3901;SDS011;1966;49.908;9.156;2023-07-08T04:32:13;12.57;;;8.90;;
3901;SDS011;1966;49.908;9.156;2023-07-08T04:37:12;13.30;;;9.13;;
3901;SDS011;1966;49.908;9.156;2023-07-08T04:42:11;12.07;;;8.67;;
3901;SDS011;1966;49.908;9.156;2023-07-08T04:47:16;12.67;;;9.10;;
3901;SDS011;1966;49.908;9.156;2023-07-08T04:52:18;12.83;;;9.23;;
3901;SDS011;1966;49.908;9.156;2023-07-08T04:57:17;16.60;;;8.90;;
3901;SDS011;1966;49.908;9.156;2023-07-08T05:02:20;9.60;;;7.70;;
3901;SDS011;1966;49.908;9.156;2023-07-08T05:07:19;11.90;;;8.93;;
3901;SDS011;1966;49.908;9.156;2023-07-08T05:12:18;12.67;;;8.67;;
3901;SDS011;1966;49.908;9.156;2023-07-08T05:17:17;11.17;;;8.90;;
3901;SDS011;1966;49.908;9.156;2023-07-08T05:22:18;12.93;;;8.80;;
3901;SDS011;1966;49.908;9.156;2023-07-08T05:27:23;10.83;;;8.23;;
3901;SDS011;1966;49.908;9.156;2023-07-08T05:32:22;11.67;;;7.57;;
3901;SDS011;1966;49.908;9.156;2023-07-08T05:37:24;14.13;;;7.70;;
3901;SDS011;1966;49.908;9.156;2023-07-08T05:42:26;11.27;;;7.77;;
3901;SDS011;1966;49.908;9.156;2023-07-08T05:47:26;10.13;;;7.03;;
3901;SDS011;1966;49.908;9.156;2023-07-08T05:52:26;8.90;;;7.27;;
3901;SDS011;1966;49.908;9.156;2023-07-08T05:57:26;9.33;;;7.03;;
3901;SDS011;1966;49.908;9.156;2023-07-08T06:02:25;10.43;;;7.77;;
3901;SDS011;1966;49.908;9.156;2023-07-08T06:07:24;10.47;;;8.50;;
3901;SDS011;1966;49.908;9.156;2023-07-08T06:12:25;11.00;;;8.10;;
3901;SDS011;1966;49.908;9.156;2023-07-08T06:17:24;12.27;;;8.50;;
3901;SDS011;1966;49.908;9.156;2023-07-08T06:22:24;12.17;;;8.10;;
3901;SDS011;1966;49.908;9.156;2023-07-08T06:27:24;10.30;;;7.60;;
3901;SDS011;1966;49.908;9.156;2023-07-08T06:32:23;10.10;;;8.03;;
3901;SDS011;1966;49.908;9.156;2023-07-08T06:37:23;9.80;;;8.00;;
3901;SDS011;1966;49.908;9.156;2023-07-08T06:42:22;10.30;;;7.40;;
3901;SDS011;1966;49.908;9.156;2023-07-08T06:47:22;11.80;;;7.70;;
3901;SDS011;1966;49.908;9.156;2023-07-08T06:52:22;10.83;;;7.77;;
3901;SDS011;1966;49.908;9.156;2023-07-08T06:57:21;8.70;;;6.80;;
3901;SDS011;1966;49.908;9.156;2023-07-08T07:02:20;8.93;;;6.57;;
3901;SDS011;1966;49.908;9.156;2023-07-08T07:07:21;8.10;;;6.87;;
3901;SDS011;1966;49.908;9.156;2023-07-08T07:12:20;7.20;;;6.07;;
3901;SDS011;1966;49.908;9.156;2023-07-08T07:17:20;13.77;;;7.07;;
3901;SDS011;1966;49.908;9.156;2023-07-08T07:22:21;6.93;;;6.23;;
3901;SDS011;1966;49.908;9.156;2023-07-08T07:27:20;8.00;;;6.60;;
3901;SDS011;1966;49.908;9.156;2023-07-08T07:32:22;10.53;;;6.40;;
3901;SDS011;1966;49.908;9.156;2023-07-08T07:37:23;7.83;;;6.40;;
3901;SDS011;1966;49.908;9.156;2023-07-08T07:42:22;7.90;;;5.60;;
3901;SDS011;1966;49.908;9.156;2023-07-08T07:47:21;7.20;;;6.00;;
3901;SDS011;1966;49.908;9.156;2023-07-08T07:52:21;10.90;;;6.20;;
3901;SDS011;1966;49.908;9.156;2023-07-08T07:57:23;8.23;;;6.37;;
3901;SDS011;1966;49.908;9.156;2023-07-08T08:02:23;9.43;;;5.70;;
3901;SDS011;1966;49.908;9.156;2023-07-08T08:07:23;6.70;;;5.77;;
3901;SDS011;1966;49.908;9.156;2023-07-08T08:12:23;7.67;;;5.90;;
3901;SDS011;1966;49.908;9.156;2023-07-08T08:17:22;6.10;;;5.50;;
3901;SDS011;1966;49.908;9.156;2023-07-08T08:22:22;11.03;;;5.70;;
3901;SDS011;1966;49.908;9.156;2023-07-08T08:27:21;10.07;;;5.57;;
3901;SDS011;1966;49.908;9.156;2023-07-08T08:32:22;7.80;;;5.50;;
3901;SDS011;1966;49.908;9.156;2023-07-08T08:37:21;7.70;;;6.10;;
3901;SDS011;1966;49.908;9.156;2023-07-08T08:42:22;8.80;;;5.93;;
3901;SDS011;1966;49.908;9.156;2023-07-08T08:47:37;9.70;;;5.10;;
3901;SDS011;1966;49.908;9.156;2023-07-08T08:52:37;7.27;;;5.53;;
3901;SDS011;1966;49.908;9.156;2023-07-08T08:57:43;6.07;;;5.23;;
3901;SDS011;1966;49.908;9.156;2023-07-08T09:02:49;7.87;;;5.93;;
3901;SDS011;1966;49.908;9.156;2023-07-08T09:07:54;9.23;;;6.53;;
3901;SDS011;1966;49.908;9.156;2023-07-08T09:12:58;8.10;;;6.03;;
3901;SDS011;1966;49.908;9.156;2023-07-08T09:18:02;6.03;;;5.43;;
3901;SDS011;1966;49.908;9.156;2023-07-08T09:23:07;8.13;;;6.30;;
3901;SDS011;1966;49.908;9.156;2023-07-08T09:28:09;6.10;;;5.50;;
3901;SDS011;1966;49.908;9.156;2023-07-08T09:33:09;7.00;;;6.30;;
3901;SDS011;1966;49.908;9.156;2023-07-08T09:38:09;6.47;;;5.87;;
3901;SDS011;1966;49.908;9.156;2023-07-08T09:43:12;7.70;;;6.70;;
3901;SDS011;1966;49.908;9.156;2023-07-08T09:48:17;8.47;;;6.87;;
3901;SDS011;1966;49.908;9.156;2023-07-08T09:53:17;8.20;;;6.37;;
3901;SDS011;1966;49.908;9.156;2023-07-08T09:58:18;9.17;;;6.70;;
3901;SDS011;1966;49.908;9.156;2023-07-08T10:03:22;10.40;;;6.03;;
3901;SDS011;1966;49.908;9.156;2023-07-08T10:08:22;7.67;;;6.20;;
3901;SDS011;1966;49.908;9.156;2023-07-08T10:13:23;12.10;;;6.50;;
3901;SDS011;1966;49.908;9.156;2023-07-08T10:18:25;10.70;;;6.97;;
3901;SDS011;1966;49.908;9.156;2023-07-08T10:23:27;7.50;;;6.30;;
3901;SDS011;1966;49.908;9.156;2023-07-08T10:28:34;7.25;;;6.55;;
3901;SDS011;1966;49.908;9.156;2023-07-08T10:33:51;8.35;;;5.93;;
3901;SDS011;1966;49.908;9.156;2023-07-08T10:38:56;7.93;;;6.28;;
3901;SDS011;1966;49.908;9.156;2023-07-08T10:43:59;8.00;;;6.68;;
3901;SDS011;1966;49.908;9.156;2023-07-08T10:49:06;7.68;;;6.63;;
3901;SDS011;1966;49.908;9.156;2023-07-08T10:54:15;7.60;;;6.30;;
3901;SDS011;1966;49.908;9.156;2023-07-08T10:59:24;6.35;;;5.75;;
3901;SDS011;1966;49.908;9.156;2023-07-08T11:04:37;7.28;;;6.57;;
3901;SDS011;1966;49.908;9.156;2023-07-08T11:09:40;7.28;;;5.97;;
3901;SDS011;1966;49.908;9.156;2023-07-08T11:14:42;8.38;;;6.25;;
3901;SDS011;1966;49.908;9.156;2023-07-08T11:19:44;8.20;;;6.10;;
3901;SDS011;1966;49.908;9.156;2023-07-08T11:24:46;7.25;;;6.00;;
3901;SDS011;1966;49.908;9.156;2023-07-08T11:29:46;6.07;;;5.53;;
3901;SDS011;1966;49.908;9.156;2023-07-08T11:34:48;6.70;;;6.10;;
3901;SDS011;1966;49.908;9.156;2023-07-08T11:39:53;6.35;;;5.80;;
3901;SDS011;1966;49.908;9.156;2023-07-08T11:44:54;5.57;;;5.18;;
3901;SDS011;1966;49.908;9.156;2023-07-08T11:49:55;6.15;;;5.55;;
3901;SDS011;1966;49.908;9.156;2023-07-08T11:54:55;6.35;;;5.85;;
3901;SDS011;1966;49.908;9.156;2023-07-08T12:05:14;6.00;;;5.45;;
3901;SDS011;1966;49.908;9.156;2023-07-08T12:10:16;6.38;;;5.18;;
3901;SDS011;1966;49.908;9.156;2023-07-08T12:15:17;5.78;;;5.28;;
3901;SDS011;1966;49.908;9.156;2023-07-08T12:20:21;5.18;;;4.72;;
3901;SDS011;1966;49.908;9.156;2023-07-08T12:25:21;5.28;;;4.78;;
3901;SDS011;1966;49.908;9.156;2023-07-08T12:30:21;5.30;;;4.75;;
3901;SDS011;1966;49.908;9.156;2023-07-08T12:35:26;5.30;;;4.80;;
3901;SDS011;1966;49.908;9.156;2023-07-08T12:40:26;4.90;;;4.50;;
3901;SDS011;1966;49.908;9.156;2023-07-08T12:45:26;6.32;;;5.15;;
3901;SDS011;1966;49.908;9.156;2023-07-08T12:50:27;10.65;;;4.65;;
3901;SDS011;1966;49.908;9.156;2023-07-08T12:55:27;5.60;;;4.20;;
3901;SDS011;1966;49.908;9.156;2023-07-08T13:00:27;4.88;;;4.47;;
3901;SDS011;1966;49.908;9.156;2023-07-08T13:05:28;4.95;;;4.55;;
3901;SDS011;1966;49.908;9.156;2023-07-08T13:10:28;5.47;;;5.03;;
3901;SDS011;1966;49.908;9.156;2023-07-08T13:15:29;5.35;;;4.65;;
3901;SDS011;1966;49.908;9.156;2023-07-08T13:20:32;5.05;;;4.65;;
3901;SDS011;1966;49.908;9.156;2023-07-08T13:25:31;4.90;;;4.60;;
3901;SDS011;1966;49.908;9.156;2023-07-08T13:30:31;5.45;;;4.95;;
3901;SDS011;1966;49.908;9.156;2023-07-08T13:35:36;5.25;;;4.78;;
3901;SDS011;1966;49.908;9.156;2023-07-08T13:40:35;4.80;;;4.40;;
3901;SDS011;1966;49.908;9.156;2023-07-08T13:45:35;4.40;;;4.07;;
3901;SDS011;1966;49.908;9.156;2023-07-08T13:50:38;4.68;;;4.32;;
3901;SDS011;1966;49.908;9.156;2023-07-08T13:55:38;4.20;;;3.90;;
3901;SDS011;1966;49.908;9.156;2023-07-08T14:00:38;4.40;;;4.10;;
3901;SDS011;1966;49.908;9.156;2023-07-08T14:05:39;4.07;;;3.78;;
3901;SDS011;1966;49.908;9.156;2023-07-08T14:10:38;5.07;;;3.88;;
3901;SDS011;1966;49.908;9.156;2023-07-08T14:15:37;9.15;;;3.75;;
3901;SDS011;1966;49.908;9.156;2023-07-08T14:20:38;5.93;;;3.95;;
3901;SDS011;1966;49.908;9.156;2023-07-08T14:25:37;4.20;;;3.90;;
3901;SDS011;1966;49.908;9.156;2023-07-08T14:30:39;4.50;;;4.20;;
3901;SDS011;1966;49.908;9.156;2023-07-08T14:35:41;3.95;;;3.60;;
3901;SDS011;1966;49.908;9.156;2023-07-08T14:40:41;4.55;;;4.00;;
3901;SDS011;1966;49.908;9.156;2023-07-08T14:45:41;4.15;;;3.85;;
3901;SDS011;1966;49.908;9.156;2023-07-08T14:50:43;4.95;;;4.00;;
3901;SDS011;1966;49.908;9.156;2023-07-08T14:55:43;5.82;;;4.45;;
3901;SDS011;1966;49.908;9.156;2023-07-08T15:00:43;6.55;;;4.18;;
3901;SDS011;1966;49.908;9.156;2023-07-08T15:05:44;4.63;;;3.88;;
3901;SDS011;1966;49.908;9.156;2023-07-08T15:10:44;4.03;;;3.70;;
3901;SDS011;1966;49.908;9.156;2023-07-08T15:15:44;3.65;;;3.35;;
3901;SDS011;1966;49.908;9.156;2023-07-08T15:20:45;4.28;;;3.83;;
3901;SDS011;1966;49.908;9.156;2023-07-08T15:25:44;3.83;;;3.53;;
3901;SDS011;1966;49.908;9.156;2023-07-08T15:30:44;5.60;;;4.47;;
3901;SDS011;1966;49.908;9.156;2023-07-08T15:35:45;5.35;;;4.95;;
3901;SDS011;1966;49.908;9.156;2023-07-08T15:40:44;4.07;;;3.65;;
3901;SDS011;1966;49.908;9.156;2023-07-08T15:45:43;4.70;;;3.80;;
3901;SDS011;1966;49.908;9.156;2023-07-08T15:50:44;4.50;;;3.47;;
3901;SDS011;1966;49.908;9.156;2023-07-08T15:55:44;5.25;;;3.78;;
3901;SDS011;1966;49.908;9.156;2023-07-08T16:00:44;6.13;;;3.75;;
3901;SDS011;1966;49.908;9.156;2023-07-08T16:05:45;3.53;;;3.30;;
3901;SDS011;1966;49.908;9.156;2023-07-08T16:10:45;5.25;;;3.63;;
3901;SDS011;1966;49.908;9.156;2023-07-08T16:15:46;4.13;;;3.83;;
3901;SDS011;1966;49.908;9.156;2023-07-08T16:20:47;6.88;;;3.88;;
3901;SDS011;1966;49.908;9.156;2023-07-08T16:25:47;4.57;;;3.63;;
3901;SDS011;1966;49.908;9.156;2023-07-08T16:30:47;4.72;;;4.03;;
3901;SDS011;1966;49.908;9.156;2023-07-08T16:35:48;4.10;;;3.80;;
3901;SDS011;1966;49.908;9.156;2023-07-08T16:40:47;3.92;;;3.42;;
3901;SDS011;1966;49.908;9.156;2023-07-08T16:45:48;4.10;;;3.50;;
3901;SDS011;1966;49.908;9.156;2023-07-08T16:50:49;3.97;;;3.67;;
3901;SDS011;1966;49.908;9.156;2023-07-08T16:55:48;9.25;;;3.78;;
3901;SDS011;1966;49.908;9.156;2023-07-08T17:00:48;4.78;;;4.25;;
3901;SDS011;1966;49.908;9.156;2023-07-08T17:05:48;16.08;;;12.63;;
3901;SDS011;1966;49.908;9.156;2023-07-08T17:10:48;8.27;;;6.53;;
3901;SDS011;1966;49.908;9.156;2023-07-08T17:15:47;6.60;;;4.65;;
3901;SDS011;1966;49.908;9.156;2023-07-08T17:20:48;6.45;;;4.75;;
3901;SDS011;1966;49.908;9.156;2023-07-08T17:25:49;16.88;;;4.55;;
3901;SDS011;1966;49.908;9.156;2023-07-08T17:30:48;11.90;;;4.80;;
3901;SDS011;1966;49.908;9.156;2023-07-08T17:35:48;7.40;;;4.73;;
3901;SDS011;1966;49.908;9.156;2023-07-08T17:40:49;12.90;;;4.40;;
3901;SDS011;1966;49.908;9.156;2023-07-08T17:45:48;11.00;;;4.60;;
3901;SDS011;1966;49.908;9.156;2023-07-08T17:50:47;6.20;;;4.10;;
3901;SDS011;1966;49.908;9.156;2023-07-08T17:55:48;8.00;;;3.80;;
3901;SDS011;1966;49.908;9.156;2023-07-08T18:00:50;6.33;;;3.80;;
3901;SDS011;1966;49.908;9.156;2023-07-08T18:05:49;7.47;;;4.53;;
3901;SDS011;1966;49.908;9.156;2023-07-08T18:10:48;14.75;;;4.68;;
3901;SDS011;1966;49.908;9.156;2023-07-08T18:15:47;6.60;;;3.60;;
3901;SDS011;1966;49.908;9.156;2023-07-08T18:20:50;5.35;;;3.80;;
3901;SDS011;1966;49.908;9.156;2023-07-08T18:25:49;6.85;;;4.25;;
3901;SDS011;1966;49.908;9.156;2023-07-08T18:30:49;5.85;;;3.90;;
3901;SDS011;1966;49.908;9.156;2023-07-08T18:35:50;5.03;;;4.35;;
3901;SDS011;1966;49.908;9.156;2023-07-08T18:40:49;5.70;;;4.97;;
3901;SDS011;1966;49.908;9.156;2023-07-08T18:45:49;5.53;;;4.67;;
3901;SDS011;1966;49.908;9.156;2023-07-08T18:50:49;12.33;;;5.20;;
3901;SDS011;1966;49.908;9.156;2023-07-08T18:55:51;6.87;;;4.70;;
3901;SDS011;1966;49.908;9.156;2023-07-08T19:00:50;9.47;;;4.20;;
3901;SDS011;1966;49.908;9.156;2023-07-08T19:05:50;7.87;;;4.60;;
3901;SDS011;1966;49.908;9.156;2023-07-08T19:10:52;5.00;;;4.00;;
3901;SDS011;1966;49.908;9.156;2023-07-08T19:15:52;4.50;;;3.90;;
3901;SDS011;1966;49.908;9.156;2023-07-08T19:20:52;5.87;;;4.17;;
3901;SDS011;1966;49.908;9.156;2023-07-08T19:25:53;7.77;;;4.60;;
3901;SDS011;1966;49.908;9.156;2023-07-08T19:30:54;8.73;;;4.97;;
3901;SDS011;1966;49.908;9.156;2023-07-08T19:35:54;8.07;;;5.50;;
3901;SDS011;1966;49.908;9.156;2023-07-08T19:40:59;6.23;;;4.70;;
3901;SDS011;1966;49.908;9.156;2023-07-08T19:45:58;8.03;;;5.40;;
3901;SDS011;1966;49.908;9.156;2023-07-08T19:50:57;7.30;;;5.10;;
3901;SDS011;1966;49.908;9.156;2023-07-08T19:55:58;6.87;;;5.03;;
3901;SDS011;1966;49.908;9.156;2023-07-08T20:00:57;6.33;;;5.40;;
3901;SDS011;1966;49.908;9.156;2023-07-08T20:05:56;6.80;;;4.87;;
3901;SDS011;1966;49.908;9.156;2023-07-08T20:10:56;8.10;;;5.07;;
3901;SDS011;1966;49.908;9.156;2023-07-08T20:15:58;9.00;;;5.03;;
3901;SDS011;1966;49.908;9.156;2023-07-08T20:20:58;8.17;;;5.10;;
3901;SDS011;1966;49.908;9.156;2023-07-08T20:25:57;6.97;;;4.73;;
3901;SDS011;1966;49.908;9.156;2023-07-08T20:30:58;6.73;;;4.73;;
3901;SDS011;1966;49.908;9.156;2023-07-08T20:35:57;8.63;;;5.40;;
3901;SDS011;1966;49.908;9.156;2023-07-08T20:40:56;6.40;;;5.20;;
3901;SDS011;1966;49.908;9.156;2023-07-08T20:45:57;6.90;;;5.00;;
3901;SDS011;1966;49.908;9.156;2023-07-08T20:50:57;9.60;;;5.27;;
3901;SDS011;1966;49.908;9.156;2023-07-08T20:55:56;8.83;;;6.37;;
3901;SDS011;1966;49.908;9.156;2023-07-08T21:00:55;9.13;;;4.97;;
3901;SDS011;1966;49.908;9.156;2023-07-08T21:05:57;8.13;;;5.40;;
3901;SDS011;1966;49.908;9.156;2023-07-08T21:10:58;7.57;;;5.70;;
3901;SDS011;1966;49.908;9.156;2023-07-08T21:15:57;8.53;;;5.73;;
3901;SDS011;1966;49.908;9.156;2023-07-08T21:20:57;12.57;;;5.80;;
3901;SDS011;1966;49.908;9.156;2023-07-08T21:25:57;8.40;;;5.37;;
3901;SDS011;1966;49.908;9.156;2023-07-08T21:30:56;5.93;;;4.53;;
3901;SDS011;1966;49.908;9.156;2023-07-08T21:35:57;6.33;;;4.93;;
3901;SDS011;1966;49.908;9.156;2023-07-08T21:40:57;8.97;;;5.33;;
3901;SDS011;1966;49.908;9.156;2023-07-08T21:45:56;6.00;;;5.03;;
3901;SDS011;1966;49.908;9.156;2023-07-08T21:50:58;8.87;;;5.30;;
3901;SDS011;1966;49.908;9.156;2023-07-08T21:55:58;9.03;;;5.27;;
3901;SDS011;1966;49.908;9.156;2023-07-08T22:00:57;9.87;;;5.60;;
3901;SDS011;1966;49.908;9.156;2023-07-08T22:05:57;6.83;;;5.30;;
3901;SDS011;1966;49.908;9.156;2023-07-08T22:10:58;9.07;;;5.13;;
3901;SDS011;1966;49.908;9.156;2023-07-08T22:15:58;9.50;;;5.50;;
3901;SDS011;1966;49.908;9.156;2023-07-08T22:20:58;6.63;;;5.27;;
3901;SDS011;1966;49.908;9.156;2023-07-08T22:25:59;6.50;;;5.23;;
3901;SDS011;1966;49.908;9.156;2023-07-08T22:30:58;7.70;;;5.20;;
3901;SDS011;1966;49.908;9.156;2023-07-08T22:35:58;5.90;;;4.70;;
3901;SDS011;1966;49.908;9.156;2023-07-08T22:40:57;6.70;;;4.93;;
3901;SDS011;1966;49.908;9.156;2023-07-08T22:45:58;6.87;;;4.90;;
3901;SDS011;1966;49.908;9.156;2023-07-08T22:50:57;9.20;;;5.43;;
3901;SDS011;1966;49.908;9.156;2023-07-08T22:55:59;7.20;;;5.00;;
3901;SDS011;1966;49.908;9.156;2023-07-08T23:01:00;6.40;;;5.33;;
3901;SDS011;1966;49.908;9.156;2023-07-08T23:05:59;7.10;;;4.90;;
3901;SDS011;1966;49.908;9.156;2023-07-08T23:10:59;8.13;;;4.83;;
3901;SDS011;1966;49.908;9.156;2023-07-08T23:16:00;6.97;;;4.83;;
3901;SDS011;1966;49.908;9.156;2023-07-08T23:20:59;5.67;;;4.77;;
3901;SDS011;1966;49.908;9.156;2023-07-08T23:25:58;9.53;;;5.30;;
3901;SDS011;1966;49.908;9.156;2023-07-08T23:30:59;7.57;;;5.13;;
3901;SDS011;1966;49.908;9.156;2023-07-08T23:35:58;5.93;;;5.00;;
3901;SDS011;1966;49.908;9.156;2023-07-08T23:40:57;7.57;;;5.40;;
3901;SDS011;1966;49.908;9.156;2023-07-08T23:45:57;6.77;;;5.13;;
3901;SDS011;1966;49.908;9.156;2023-07-08T23:50:57;7.23;;;5.30;;
3901;SDS011;1966;49.908;9.156;2023-07-08T23:55:57;11.50;;;5.90;;
